Time;durP1;ratioP1;P1;durP2;ratioP2;P2;SDS_P1;SDS_P2;PMS_P1;PMS_P2;Temp;Humidity;BMP_temperature;BMP_pressure;BME280_temperature;BME280_humidity;BME280_pressure;Samples;Min_cycle;Max_cycle;Signal;HPM_P1;HPM_P2
2023/01/13 00:01:17;;;;;;;2.10;1.43;;;9.50;99.90;;;;;;5052685;28;20424;-72
2023/01/13 00:03:43;;;;;;;1.87;1.67;;;9.50;99.90;;;;;;5052865;28;20247;-71
2023/01/13 00:06:12;;;;;;;2.53;1.60;;;9.50;99.90;;;;;;5052613;28;20796;-71
2023/01/13 00:08:38;;;;;;;0.63;0.60;;;9.50;99.90;;;;;;5052052;28;20432;-71
2023/01/13 00:11:04;;;;;;;1.03;1.00;;;9.50;99.90;;;;;;5052627;28;20418;-71
2023/01/13 00:13:31;;;;;;;2.67;1.40;;;9.50;99.90;;;;;;5052511;28;20644;-72
2023/01/13 00:16:02;;;;;;;2.60;1.17;;;9.50;99.90;;;;;;5052502;28;20257;-71
2023/01/13 00:18:28;;;;;;;1.20;1.10;;;9.50;99.90;;;;;;5051788;28;20425;-72
2023/01/13 00:21:02;;;;;;;0.83;0.83;;;9.50;99.90;;;;;;5034569;28;20416;-70
2023/01/13 00:23:29;;;;;;;1.43;0.93;;;9.50;99.90;;;;;;5052334;28;20200;-71
2023/01/13 00:25:56;;;;;;;2.00;1.07;;;9.50;99.90;;;;;;5052399;28;20474;-72
2023/01/13 00:28:21;;;;;;;1.03;0.93;;;9.50;99.90;;;;;;5033639;28;20460;-71
2023/01/13 00:30:47;;;;;;;2.47;0.67;;;9.50;99.90;;;;;;5058882;28;20949;-72
2023/01/13 00:33:12;;;;;;;2.77;1.07;;;9.50;99.90;;;;;;5058065;28;20702;-72
2023/01/13 00:35:38;;;;;;;1.20;0.70;;;9.50;99.90;;;;;;5060338;28;20257;-70
2023/01/13 00:38:03;;;;;;;1.70;0.70;;;9.50;99.90;;;;;;5071780;28;20222;-72
2023/01/13 00:40:29;;;;;;;2.00;1.13;;;9.50;99.90;;;;;;5059423;28;20667;-70
2023/01/13 00:45:39;;;;;;;2.73;1.07;;;9.60;99.90;;;;;;5052128;28;20177;-71
2023/01/13 00:48:04;;;;;;;1.67;0.83;;;9.60;99.90;;;;;;5052246;28;20848;-73
2023/01/13 00:50:30;;;;;;;1.03;0.90;;;9.60;99.90;;;;;;5051122;28;20165;-71
2023/01/13 00:52:59;;;;;;;2.30;0.90;;;9.60;99.90;;;;;;5051871;28;20186;-71
2023/01/13 00:55:24;;;;;;;2.70;1.47;;;9.60;99.90;;;;;;5051892;28;20164;-71
2023/01/13 00:57:50;;;;;;;1.63;1.07;;;9.50;99.90;;;;;;5051877;28;20432;-71
2023/01/13 01:00:16;;;;;;;1.07;0.80;;;9.70;99.90;;;;;;5051098;28;20180;-71
2023/01/13 01:02:41;;;;;;;1.57;1.47;;;9.70;99.90;;;;;;5051750;28;20190;-70
2023/01/13 01:05:07;;;;;;;2.37;1.10;;;9.80;99.90;;;;;;5051851;28;20850;-71
2023/01/13 01:07:32;;;;;;;2.50;1.53;;;9.80;99.90;;;;;;5051778;28;20205;-71
2023/01/13 01:09:58;;;;;;;1.33;1.20;;;9.80;99.90;;;;;;5050996;28;20177;-72
2023/01/13 01:12:23;;;;;;;2.13;1.73;;;9.80;99.90;;;;;;5051608;28;20675;-71
2023/01/13 01:14:49;;;;;;;4.00;1.67;;;9.80;99.90;;;;;;5051636;28;20177;-71
2023/01/13 01:17:14;;;;;;;4.27;1.10;;;9.80;99.90;;;;;;5051722;28;20235;-70
2023/01/13 01:19:41;;;;;;;1.93;1.27;;;9.80;99.90;;;;;;5050983;28;20170;-71
2023/01/13 01:22:06;;;;;;;1.50;0.80;;;9.80;99.90;;;;;;5051700;28;20186;-70
2023/01/13 01:24:32;;;;;;;4.13;1.10;;;9.80;99.90;;;;;;5051585;28;20853;-72
2023/01/13 01:26:58;;;;;;;3.27;1.03;;;9.80;99.90;;;;;;5051683;28;20205;-72
2023/01/13 01:29:23;;;;;;;2.23;0.70;;;9.80;99.90;;;;;;5050939;28;20178;-71
2023/01/13 01:31:49;;;;;;;2.03;0.90;;;9.80;99.90;;;;;;5051420;28;20235;-70
2023/01/13 01:34:14;;;;;;;2.40;1.00;;;9.90;99.90;;;;;;5051071;28;20220;-72
2023/01/13 01:36:40;;;;;;;1.10;1.00;;;9.80;99.90;;;;;;5058269;28;21254;-71
2023/01/13 01:39:05;;;;;;;1.20;0.90;;;9.90;99.90;;;;;;5055949;28;20315;-71
2023/01/13 01:41:33;;;;;;;5.50;1.03;;;9.90;99.90;;;;;;5059237;28;20184;-72
2023/01/13 01:44:19;;;;;;;1.13;0.93;;;9.90;99.90;;;;;;5070431;28;20200;-70
2023/01/13 01:46:44;;;;;;;1.00;0.90;;;9.80;99.90;;;;;;5060664;28;20463;-71
2023/01/13 01:49:30;;;;;;;2.57;1.17;;;9.80;99.90;;;;;;5050605;28;20929;-71
2023/01/13 01:52:03;;;;;;;2.40;1.27;;;9.80;99.90;;;;;;5051443;28;20174;-71
2023/01/13 01:54:42;;;;;;;1.37;0.90;;;9.70;99.90;;;;;;5051487;28;20422;-71
2023/01/13 01:57:12;;;;;;;1.70;0.90;;;9.60;99.90;;;;;;5051406;28;20412;-71
2023/01/13 01:59:39;;;;;;;2.20;0.83;;;9.60;99.90;;;;;;5050517;28;20476;-70
2023/01/13 02:02:04;;;;;;;0.90;0.90;;;9.60;99.90;;;;;;5051809;28;20435;-70
2023/01/13 02:04:35;;;;;;;2.47;0.53;;;9.60;99.90;;;;;;5054938;28;20438;-71
2023/01/13 02:07:02;;;;;;;1.43;0.80;;;9.60;99.90;;;;;;5055012;28;20190;-71
2023/01/13 02:09:28;;;;;;;1.53;0.87;;;9.60;99.90;;;;;;5054285;28;20422;-71
2023/01/13 02:14:40;;;;;;;2.30;1.10;;;9.70;99.90;;;;;;5054911;28;20502;-71
2023/01/13 02:17:23;;;;;;;1.87;0.90;;;9.70;99.90;;;;;;5054859;28;20430;-71
2023/01/13 02:20:22;;;;;;;0.90;0.80;;;9.70;99.90;;;;;;5054066;28;20412;-71
2023/01/13 02:22:54;;;;;;;0.80;0.80;;;9.70;99.90;;;;;;5054435;28;20446;-71
2023/01/13 02:25:34;;;;;;;0.87;0.80;;;9.70;99.90;;;;;;5054713;28;20408;-71
2023/01/13 02:31:40;;;;;;;1.00;0.97;;;9.70;99.90;;;;;;5054489;28;20542;-71
2023/01/13 02:31:41;;;;;;;3.40;1.43;;;9.70;99.90;;;;;;4993795;28;20470;-71
2023/01/13 02:34:16;;;;;;;2.00;1.13;;;9.70;99.90;;;;;;5054666;28;20458;-71
2023/01/13 02:36:58;;;;;;;3.03;0.90;;;9.70;99.90;;;;;;5034767;28;20422;-71
2023/01/13 02:39:33;;;;;;;2.93;0.97;;;9.70;99.90;;;;;;5043846;28;20419;-71
2023/01/13 02:45:03;;;;;;;2.67;1.23;;;9.70;99.90;;;;;;5054625;28;20836;-71
2023/01/13 02:47:31;;;;;;;1.33;1.00;;;9.70;99.90;;;;;;5054138;28;20459;-71
2023/01/13 02:50:01;;;;;;;1.67;1.30;;;9.70;99.90;;;;;;5053388;28;20897;-71
2023/01/13 02:52:31;;;;;;;1.90;0.80;;;9.70;99.90;;;;;;5054040;28;20442;-71
2023/01/13 02:55:02;;;;;;;1.37;0.90;;;9.70;99.90;;;;;;5054033;28;20420;-71
2023/01/13 02:57:30;;;;;;;3.03;1.17;;;9.70;99.90;;;;;;5053943;28;20431;-72
2023/01/13 02:59:56;;;;;;;2.47;0.97;;;9.70;99.90;;;;;;5053183;28;20979;-72
2023/01/13 03:02:23;;;;;;;3.63;1.10;;;9.70;99.90;;;;;;5053860;28;20436;-71
2023/01/13 03:04:55;;;;;;;1.63;0.87;;;9.70;99.90;;;;;;5054333;28;20178;-71
2023/01/13 03:07:52;;;;;;;1.50;0.80;;;9.70;99.90;;;;;;5053915;28;20488;-72
2023/01/13 03:10:36;;;;;;;1.30;0.90;;;9.60;99.90;;;;;;5049105;28;20438;-69
2023/01/13 03:13:10;;;;;;;2.17;0.80;;;9.60;99.90;;;;;;5050271;28;20477;-69
2023/01/13 03:15:49;;;;;;;1.73;0.83;;;9.70;99.90;;;;;;5053649;28;20493;-69
2023/01/13 03:18:32;;;;;;;2.00;0.80;;;9.60;99.90;;;;;;5051322;28;20423;-69
2023/01/13 03:21:07;;;;;;;0.80;0.80;;;9.60;99.90;;;;;;5072718;28;20771;-70
2023/01/13 03:23:49;;;;;;;2.43;0.80;;;9.60;99.90;;;;;;5053432;28;20530;-70
2023/01/13 03:26:30;;;;;;;1.63;0.90;;;9.60;99.90;;;;;;5053772;28;20931;-70
2023/01/13 03:29:11;;;;;;;1.03;0.70;;;9.60;99.90;;;;;;5052809;28;20432;-70
2023/01/13 03:31:44;;;;;;;1.90;0.90;;;9.60;99.90;;;;;;5053136;28;20427;-70
2023/01/13 03:34:16;;;;;;;1.00;0.80;;;9.70;99.90;;;;;;5053341;28;20494;-69
2023/01/13 03:36:45;;;;;;;4.10;1.00;;;9.70;99.90;;;;;;5053388;28;20423;-69
2023/01/13 03:39:14;;;;;;;1.50;1.10;;;9.60;99.90;;;;;;5052528;28;20504;-70
2023/01/13 03:41:47;;;;;;;0.90;0.80;;;9.70;99.90;;;;;;5053253;28;20921;-72
2023/01/13 03:44:21;;;;;;;2.10;1.27;;;9.70;99.90;;;;;;5053216;28;20490;-69
2023/01/13 03:47:12;;;;;;;1.97;0.80;;;9.70;99.90;;;;;;5052993;28;20972;-70
2023/01/13 03:50:05;;;;;;;1.80;0.83;;;9.70;99.90;;;;;;5052414;28;20447;-70
2023/01/13 03:52:32;;;;;;;1.03;0.70;;;9.70;99.90;;;;;;5052940;28;20440;-70
2023/01/13 03:55:31;;;;;;;1.30;1.10;;;9.70;99.90;;;;;;5052948;28;20474;-69
2023/01/13 03:58:02;;;;;;;0.80;0.80;;;9.60;99.90;;;;;;5035419;28;20527;-69
2023/01/13 04:00:41;;;;;;;1.37;1.07;;;9.60;99.90;;;;;;5052157;28;20424;-69
2023/01/13 04:03:10;;;;;;;2.40;0.93;;;9.50;99.90;;;;;;5052734;28;20450;-70
2023/01/13 04:05:42;;;;;;;1.00;0.83;;;9.60;99.90;;;;;;5052466;28;20428;-70
2023/01/13 04:08:19;;;;;;;1.93;1.30;;;9.60;99.90;;;;;;5052588;28;20463;-71
2023/01/13 04:11:13;;;;;;;1.80;1.03;;;9.50;99.90;;;;;;5035055;28;20830;-70
2023/01/13 04:13:42;;;;;;;2.03;1.83;;;9.50;99.90;;;;;;5052477;28;20463;-70
2023/01/13 04:16:10;;;;;;;1.43;1.00;;;9.50;99.90;;;;;;5052581;28;20785;-70
2023/01/13 04:18:37;;;;;;;3.63;1.20;;;9.50;99.90;;;;;;5050932;28;20468;-70
2023/01/13 04:21:04;;;;;;;1.60;0.80;;;9.60;99.90;;;;;;5060578;28;20449;-72
2023/01/13 04:23:29;;;;;;;1.13;0.70;;;9.50;99.90;;;;;;5069231;28;20820;-70
2023/01/13 04:25:55;;;;;;;1.47;1.23;;;9.50;99.90;;;;;;5067144;28;20446;-71
2023/01/13 04:28:21;;;;;;;1.00;0.90;;;9.50;99.90;;;;;;5051630;28;20201;-70
2023/01/13 04:30:47;;;;;;;1.60;0.90;;;9.50;99.90;;;;;;5052363;28;20420;-71
2023/01/13 04:33:14;;;;;;;1.73;0.73;;;9.50;99.90;;;;;;5052266;28;20893;-70
2023/01/13 04:35:40;;;;;;;0.67;0.67;;;9.50;99.90;;;;;;5052261;28;20204;-70
2023/01/13 04:38:11;;;;;;;1.10;0.80;;;9.60;99.90;;;;;;5051921;28;20840;-69
2023/01/13 04:40:37;;;;;;;0.83;0.83;;;9.60;99.90;;;;;;5051862;28;20423;-70
2023/01/13 04:43:03;;;;;;;0.87;0.70;;;9.70;99.90;;;;;;5052132;28;20432;-70
2023/01/13 04:45:29;;;;;;;1.57;0.63;;;9.70;99.90;;;;;;5052180;28;20968;-71
2023/01/13 04:47:54;;;;;;;2.30;0.90;;;9.70;99.90;;;;;;5051937;28;20209;-69
2023/01/13 04:50:21;;;;;;;1.80;0.70;;;9.70;99.90;;;;;;5051278;28;20464;-70
2023/01/13 04:52:47;;;;;;;1.13;0.90;;;9.70;99.90;;;;;;5051926;28;20190;-70
2023/01/13 04:55:13;;;;;;;1.40;0.73;;;9.60;99.90;;;;;;5033831;28;20438;-70
2023/01/13 04:57:38;;;;;;;1.27;0.70;;;9.60;99.90;;;;;;5052039;28;20432;-70
2023/01/13 05:00:05;;;;;;;1.87;0.87;;;9.60;99.90;;;;;;5051228;28;20193;-71
2023/01/13 05:02:33;;;;;;;1.30;0.80;;;9.60;99.90;;;;;;5051905;28;20228;-69
2023/01/13 05:04:59;;;;;;;1.10;0.70;;;9.60;99.90;;;;;;5051850;28;20426;-70
2023/01/13 05:07:25;;;;;;;0.60;0.60;;;9.60;99.90;;;;;;5033842;28;20459;-71
2023/01/13 05:09:50;;;;;;;0.70;0.70;;;9.60;99.90;;;;;;5051110;28;20181;-71
2023/01/13 05:17:44;;;;;;;5.60;0.93;;;9.50;99.90;;;;;;5051756;28;20450;-72
2023/01/13 05:20:11;;;;;;;1.30;0.87;;;9.50;99.90;;;;;;5051046;28;20427;-73
2023/01/13 05:25:21;;;;;;;0.90;0.60;;;9.50;99.90;;;;;;5058137;28;20521;-72
2023/01/13 05:27:48;;;;;;;0.70;0.60;;;9.50;99.90;;;;;;5059825;28;20461;-72
2023/01/13 05:30:14;;;;;;;1.07;0.70;;;9.50;99.90;;;;;;5041965;28;20484;-73
2023/01/13 05:32:40;;;;;;;0.90;0.90;;;9.50;99.90;;;;;;5059969;28;20454;-73
2023/01/13 05:35:06;;;;;;;2.57;0.70;;;9.50;99.90;;;;;;5056977;28;20505;-72
2023/01/13 05:37:32;;;;;;;1.90;0.70;;;9.50;99.90;;;;;;5069826;28;20927;-73
2023/01/13 05:45:26;;;;;;;0.60;0.50;;;9.50;99.90;;;;;;5055425;28;20500;-71
2023/01/13 05:47:51;;;;;;;0.60;0.60;;;9.50;99.90;;;;;;5055282;28;20514;-73
2023/01/13 05:50:17;;;;;;;0.90;0.70;;;9.50;99.90;;;;;;5054665;28;20248;-72
2023/01/13 05:52:43;;;;;;;1.17;0.60;;;9.50;99.90;;;;;;5055102;28;20658;-72
2023/01/13 05:55:10;;;;;;;1.13;0.57;;;9.50;99.90;;;;;;5055261;28;20176;-73
2023/01/13 05:57:35;;;;;;;0.50;0.47;;;9.50;99.90;;;;;;5054948;28;20180;-72
2023/01/13 06:00:02;;;;;;;0.90;0.50;;;9.50;99.90;;;;;;5054432;28;20428;-71
2023/01/13 06:02:27;;;;;;;1.53;1.27;;;9.60;99.90;;;;;;5054907;28;20243;-72
2023/01/13 06:04:53;;;;;;;3.33;1.10;;;9.60;99.90;;;;;;5055042;28;20415;-73
2023/01/13 06:07:19;;;;;;;0.70;0.70;;;9.60;99.90;;;;;;5054962;28;20205;-73
2023/01/13 06:09:44;;;;;;;3.37;0.60;;;9.50;99.90;;;;;;5054340;28;20165;-71
2023/01/13 06:12:11;;;;;;;0.73;0.73;;;9.60;99.90;;;;;;5054599;28;20205;-73
2023/01/13 06:14:39;;;;;;;1.00;0.60;;;9.60;99.90;;;;;;5054973;28;20173;-72
2023/01/13 06:17:10;;;;;;;2.63;0.83;;;9.50;99.90;;;;;;5055124;28;20933;-73
2023/01/13 06:19:36;;;;;;;2.40;1.57;;;9.50;99.90;;;;;;5053947;28;20426;-72
2023/01/13 06:22:18;;;;;;;1.13;0.70;;;9.50;99.90;;;;;;5054618;28;22260;-72
2023/01/13 06:24:49;;;;;;;0.57;0.53;;;9.50;99.90;;;;;;5054614;28;20203;-72
2023/01/13 06:27:15;;;;;;;0.70;0.50;;;9.50;99.90;;;;;;5054284;28;20462;-73
2023/01/13 06:29:41;;;;;;;1.03;0.80;;;9.50;99.90;;;;;;5053671;28;20523;-73
2023/01/13 06:32:15;;;;;;;1.10;0.50;;;9.50;99.90;;;;;;5054333;28;20863;-73
2023/01/13 06:34:44;;;;;;;0.63;0.60;;;9.50;99.90;;;;;;5055369;28;20173;-73
2023/01/13 06:37:13;;;;;;;0.73;0.60;;;9.60;99.90;;;;;;5060534;28;20422;-73
2023/01/13 06:39:39;;;;;;;0.90;0.60;;;9.50;99.90;;;;;;5058972;28;20896;-71
2023/01/13 06:44:49;;;;;;;1.10;0.80;;;9.60;99.90;;;;;;5070699;28;20450;-73
2023/01/13 06:47:16;;;;;;;1.50;0.90;;;9.60;99.90;;;;;;5054179;28;20459;-73
2023/01/13 06:49:41;;;;;;;0.67;0.67;;;9.60;99.90;;;;;;5052854;28;20316;-71
2023/01/13 06:52:07;;;;;;;0.70;0.70;;;9.50;99.90;;;;;;5054043;28;20554;-73
2023/01/13 06:54:33;;;;;;;0.73;0.70;;;9.50;99.90;;;;;;5053964;28;20173;-73
2023/01/13 06:56:59;;;;;;;0.50;0.50;;;9.50;99.90;;;;;;5054003;28;20296;-73
2023/01/13 06:59:25;;;;;;;1.70;0.50;;;9.50;99.90;;;;;;5053309;28;20905;-73
2023/01/13 07:01:50;;;;;;;3.07;0.60;;;9.50;99.90;;;;;;5053899;28;20423;-73
2023/01/13 07:04:16;;;;;;;2.30;0.80;;;9.60;99.90;;;;;;5053865;28;20178;-73
2023/01/13 07:06:41;;;;;;;0.70;0.60;;;9.50;99.90;;;;;;5053740;28;20174;-72
2023/01/13 07:09:07;;;;;;;0.70;0.60;;;9.50;99.90;;;;;;5053128;28;20166;-73
2023/01/13 07:11:32;;;;;;;0.93;0.50;;;9.50;99.90;;;;;;5053731;28;20223;-73
2023/01/13 07:16:45;;;;;;;0.73;0.57;;;9.50;99.90;;;;;;5053728;28;20203;-72
2023/01/13 07:19:11;;;;;;;1.13;0.60;;;9.50;99.90;;;;;;5052947;28;20968;-72
2023/01/13 07:21:36;;;;;;;0.50;0.50;;;9.50;99.90;;;;;;5053583;28;20174;-71
2023/01/13 07:24:02;;;;;;;1.27;0.57;;;9.50;99.90;;;;;;5053565;28;20281;-73
2023/01/13 07:26:27;;;;;;;1.80;0.70;;;9.50;99.90;;;;;;5053490;28;20173;-72
2023/01/13 07:28:53;;;;;;;1.37;0.70;;;9.50;99.90;;;;;;5052598;28;20178;-71
2023/01/13 07:31:20;;;;;;;0.80;0.80;;;9.50;99.90;;;;;;5053157;28;20725;-73
2023/01/13 07:33:46;;;;;;;1.27;0.50;;;9.50;99.90;;;;;;5053239;28;20190;-71
2023/01/13 07:36:12;;;;;;;0.60;0.60;;;9.60;99.90;;;;;;5053299;28;20427;-71
2023/01/13 07:38:38;;;;;;;0.50;0.50;;;9.60;99.90;;;;;;5052531;28;20924;-71
2023/01/13 07:43:50;;;;;;;0.57;0.57;;;9.70;99.90;;;;;;5061595;28;20550;-73
2023/01/13 07:46:15;;;;;;;1.87;0.70;;;9.70;99.90;;;;;;5063058;28;20423;-73
2023/01/13 07:48:41;;;;;;;0.80;0.80;;;9.80;99.90;;;;;;5072379;28;20531;-73
2023/01/13 07:51:08;;;;;;;0.70;0.53;;;9.80;99.90;;;;;;5038534;28;20253;-73
2023/01/13 07:53:34;;;;;;;0.90;0.80;;;9.80;99.90;;;;;;5052984;28;20189;-73
2023/01/13 07:56:01;;;;;;;0.93;0.70;;;9.80;99.90;;;;;;5052935;28;20515;-72
2023/01/13 07:58:28;;;;;;;0.50;0.50;;;9.80;99.90;;;;;;5052126;28;20473;-73
2023/01/13 08:00:55;;;;;;;1.07;0.60;;;9.80;99.90;;;;;;5051901;28;20428;-73
2023/01/13 08:03:21;;;;;;;1.00;0.70;;;9.90;99.90;;;;;;5052514;28;20456;-72
2023/01/13 08:05:47;;;;;;;2.83;1.20;;;9.90;99.90;;;;;;5052791;28;20416;-72
2023/01/13 08:08:12;;;;;;;1.20;0.90;;;10.00;99.90;;;;;;5051965;28;20480;-69
2023/01/13 08:10:38;;;;;;;0.60;0.60;;;10.00;99.90;;;;;;5052720;28;20177;-73
2023/01/13 08:13:18;;;;;;;0.70;0.70;;;10.00;99.90;;;;;;5052388;28;20209;-73
2023/01/13 08:15:49;;;;;;;0.90;0.60;;;10.00;99.90;;;;;;5052695;28;20540;-73
2023/01/13 08:18:21;;;;;;;0.50;0.50;;;10.10;99.90;;;;;;5051690;28;21102;-73
2023/01/13 08:20:48;;;;;;;1.10;0.70;;;10.00;99.90;;;;;;5032574;28;20761;-72
2023/01/13 08:23:14;;;;;;;0.93;0.50;;;9.90;99.90;;;;;;5032441;28;20436;-73
2023/01/13 08:25:39;;;;;;;0.60;0.60;;;9.80;99.90;;;;;;5032707;28;20431;-73
2023/01/13 08:28:05;;;;;;;1.47;0.80;;;9.70;99.90;;;;;;5032356;28;20548;-73
2023/01/13 08:30:31;;;;;;;1.30;1.20;;;9.70;99.90;;;;;;5032022;28;20249;-72
2023/01/13 08:32:56;;;;;;;0.60;0.60;;;9.70;99.90;;;;;;5032532;28;20182;-73
2023/01/13 08:35:22;;;;;;;0.97;0.90;;;9.60;99.90;;;;;;5033738;28;20648;-71
2023/01/13 08:37:48;;;;;;;2.00;0.70;;;9.50;99.90;;;;;;5052226;28;20170;-72
2023/01/13 08:40:15;;;;;;;0.70;0.67;;;9.30;99.90;;;;;;5031401;28;20420;-71
2023/01/13 08:42:41;;;;;;;0.50;0.50;;;9.10;99.90;;;;;;5032205;28;20519;-71
2023/01/13 08:45:07;;;;;;;0.80;0.57;;;9.00;99.90;;;;;;5055375;28;21043;-71
2023/01/13 08:47:33;;;;;;;2.03;0.83;;;9.00;99.90;;;;;;5057060;28;20205;-71
2023/01/13 08:49:58;;;;;;;0.60;0.60;;;9.00;99.90;;;;;;5060187;28;20439;-71
2023/01/13 08:52:24;;;;;;;1.40;0.60;;;9.00;99.90;;;;;;5057712;28;20204;-71
2023/01/13 08:54:49;;;;;;;1.80;0.93;;;9.00;99.90;;;;;;5062326;28;20584;-71
2023/01/13 08:57:15;;;;;;;1.43;0.60;;;9.10;99.90;;;;;;5063378;28;20169;-71
2023/01/13 08:59:42;;;;;;;2.00;1.00;;;9.10;99.90;;;;;;5071444;28;20223;-71
2023/01/13 09:02:15;;;;;;;1.47;1.00;;;9.20;99.90;;;;;;5059261;28;20243;-71
2023/01/13 09:04:41;;;;;;;1.13;0.93;;;9.10;99.90;;;;;;5051813;28;20502;-69
2023/01/13 09:07:07;;;;;;;0.80;0.80;;;9.10;99.90;;;;;;5051821;28;21022;-71
2023/01/13 09:09:33;;;;;;;2.27;1.50;;;9.10;99.90;;;;;;5051080;28;20186;-71
2023/01/13 09:14:42;;;;;;;1.57;1.13;;;9.00;99.90;;;;;;5058458;28;20696;-71
2023/01/13 09:17:08;;;;;;;0.70;0.70;;;8.90;99.90;;;;;;5058483;28;20416;-71
2023/01/13 09:19:34;;;;;;;0.90;0.90;;;8.80;99.90;;;;;;5057610;28;20165;-71
2023/01/13 09:22:00;;;;;;;1.33;1.20;;;8.80;99.90;;;;;;5058399;28;20227;-71
2023/01/13 09:24:25;;;;;;;0.50;0.50;;;8.80;99.90;;;;;;5058410;28;20419;-70
2023/01/13 09:26:51;;;;;;;1.63;0.63;;;8.80;99.90;;;;;;5058313;28;20216;-72
2023/01/13 09:29:17;;;;;;;1.23;0.80;;;8.80;99.90;;;;;;5057647;28;20169;-71
2023/01/13 09:31:43;;;;;;;1.30;0.83;;;8.80;99.90;;;;;;5040281;28;20500;-71
2023/01/13 09:37:08;;;;;;;1.13;0.70;;;8.80;99.90;;;;;;5058341;28;20173;-71
2023/01/13 09:39:34;;;;;;;1.10;0.50;;;9.00;99.90;;;;;;5057554;28;20420;-71
2023/01/13 09:45:19;;;;;;;3.43;0.70;;;9.50;99.90;;;;;;5057467;28;20531;-70
2023/01/13 09:48:12;;;;;;;0.80;0.73;;;9.60;99.90;;;;;;5058081;28;20486;-71
2023/01/13 09:50:48;;;;;;;0.50;0.50;;;9.40;99.90;;;;;;5058075;28;20416;-70
2023/01/13 09:53:29;;;;;;;0.60;0.50;;;9.10;99.90;;;;;;5058169;28;20496;-71
2023/01/13 09:55:55;;;;;;;0.60;0.50;;;9.00;99.90;;;;;;5058144;28;20455;-72
2023/01/13 09:58:20;;;;;;;0.60;0.60;;;8.90;99.90;;;;;;5057551;28;20548;-71
2023/01/13 10:01:12;;;;;;;1.10;0.60;;;8.80;99.90;;;;;;5063394;28;20181;-70
2023/01/13 10:03:37;;;;;;;1.13;0.70;;;8.70;99.90;;;;;;5069661;28;20192;-72
2023/01/13 10:06:16;;;;;;;0.63;0.50;;;8.60;99.90;;;;;;5069596;28;20481;-72
2023/01/13 10:08:43;;;;;;;0.60;0.40;;;8.60;99.90;;;;;;5057277;28;20349;-71
2023/01/13 10:14:39;;;;;;;1.10;0.90;;;8.60;99.90;;;;;;5057912;28;20458;-71
2023/01/13 10:17:16;;;;;;;1.57;0.50;;;8.50;99.90;;;;;;5054911;28;20433;-72
2023/01/13 10:20:19;;;;;;;1.90;0.60;;;8.50;99.90;;;;;;5037226;28;20933;-71
2023/01/13 10:23:22;;;;;;;1.67;0.60;;;8.50;99.90;;;;;;5035783;28;20482;-72
2023/01/13 10:25:53;;;;;;;1.03;0.77;;;8.50;99.90;;;;;;5020579;28;20930;-72
2023/01/13 10:28:22;;;;;;;0.70;0.63;;;9.00;99.90;;;;;;5033910;28;20460;-72
2023/01/13 10:30:48;;;;;;;6.37;1.13;;;9.50;99.90;;;;;;5034814;28;20758;-72
2023/01/13 10:33:16;;;;;;;1.53;0.67;;;9.90;99.90;;;;;;5034771;28;20506;-72
2023/01/13 10:36:02;;;;;;;2.50;1.37;;;10.70;99.90;;;;;;5029617;28;20606;-72
2023/01/13 10:38:33;;;;;;;1.90;0.63;;;12.70;99.90;;;;;;5053895;28;20412;-71
2023/01/13 10:41:01;;;;;;;1.33;1.10;;;13.60;99.90;;;;;;5054473;28;20418;-72
2023/01/13 10:43:28;;;;;;;1.63;0.90;;;13.30;99.90;;;;;;5054497;28;20440;-72
2023/01/13 10:45:57;;;;;;;0.93;0.80;;;12.80;99.90;;;;;;5054545;28;20420;-72
2023/01/13 10:48:30;;;;;;;4.20;0.70;;;12.00;99.90;;;;;;5053558;28;20455;-72
2023/01/13 10:50:56;;;;;;;1.07;0.57;;;10.90;99.90;;;;;;5054203;28;20900;-72
2023/01/13 10:53:25;;;;;;;2.37;0.77;;;10.00;99.90;;;;;;5053959;28;20451;-72
2023/01/13 10:56:03;;;;;;;1.43;0.60;;;9.50;99.90;;;;;;5054107;28;20657;-72
2023/01/13 10:58:28;;;;;;;2.00;0.60;;;9.30;99.90;;;;;;5053343;28;20521;-71
2023/01/13 11:01:00;;;;;;;3.77;1.07;;;9.10;99.90;;;;;;5052487;28;20937;-69
2023/01/13 11:03:35;;;;;;;1.00;0.80;;;8.90;99.90;;;;;;5052733;28;20198;-70
2023/01/13 11:06:01;;;;;;;1.73;0.70;;;8.60;99.90;;;;;;5062887;28;20471;-72
2023/01/13 11:08:43;;;;;;;2.30;1.10;;;8.40;99.90;;;;;;5063660;28;20540;-70
2023/01/13 11:11:40;;;;;;;1.00;0.70;;;8.30;99.90;;;;;;5050185;28;20461;-71
2023/01/13 11:14:40;;;;;;;0.80;0.53;;;8.20;99.90;;;;;;5061232;28;20459;-68
2023/01/13 11:17:08;;;;;;;0.67;0.53;;;8.20;99.90;;;;;;5073454;28;20411;-68
2023/01/13 11:19:38;;;;;;;2.13;2.03;;;8.10;99.90;;;;;;5059758;28;20416;-68
2023/01/13 11:22:13;;;;;;;1.10;0.70;;;8.00;99.90;;;;;;5053607;28;20455;-68
2023/01/13 11:25:20;;;;;;;4.00;1.30;;;8.00;99.90;;;;;;5053566;28;20411;-67
2023/01/13 11:27:57;;;;;;;1.93;0.80;;;8.10;99.90;;;;;;5027842;28;20496;-67
2023/01/13 11:30:49;;;;;;;0.97;0.73;;;7.90;99.90;;;;;;5034729;28;20413;-68
2023/01/13 11:33:15;;;;;;;2.40;1.00;;;7.80;99.90;;;;;;5053406;28;20529;-68
2023/01/13 11:35:46;;;;;;;1.13;0.60;;;7.80;99.90;;;;;;5053288;28;20444;-69
2023/01/13 11:38:30;;;;;;;0.97;0.60;;;7.80;99.90;;;;;;5052927;28;20178;-70
2023/01/13 11:41:05;;;;;;;0.50;0.50;;;7.70;99.90;;;;;;5053350;28;21048;-68
2023/01/13 11:43:42;;;;;;;1.67;0.80;;;7.70;99.90;;;;;;5053125;28;20527;-67
2023/01/13 11:46:09;;;;;;;2.50;0.60;;;7.60;99.90;;;;;;5053209;28;20416;-68
2023/01/13 11:48:40;;;;;;;1.03;0.87;;;7.50;99.90;;;;;;5052439;28;20458;-68
2023/01/13 11:51:15;;;;;;;1.17;1.07;;;7.60;99.90;;;;;;5053086;28;20408;-68
2023/01/13 11:54:04;;;;;;;2.63;1.20;;;7.60;99.90;;;;;;5053001;28;20438;-71
2023/01/13 11:56:54;;;;;;;1.10;0.60;;;7.60;99.90;;;;;;5034989;28;20488;-68
2023/01/13 11:59:45;;;;;;;2.93;2.10;;;7.80;99.90;;;;;;5051804;28;20412;-69
2023/01/13 12:02:32;;;;;;;2.30;0.87;;;8.00;99.90;;;;;;5052645;28;20428;-71
2023/01/13 12:05:16;;;;;;;1.73;1.40;;;8.30;99.90;;;;;;5052846;28;20438;-67
2023/01/13 12:07:54;;;;;;;2.83;1.00;;;8.70;99.90;;;;;;5052452;28;20890;-70
2023/01/13 12:10:33;;;;;;;4.07;1.10;;;8.80;99.90;;;;;;5052025;28;20816;-68
2023/01/13 12:13:24;;;;;;;3.60;0.90;;;9.50;99.90;;;;;;5051859;28;20521;-68
2023/01/13 12:16:27;;;;;;;2.13;1.10;;;9.30;99.90;;;;;;5060803;28;20434;-70
2023/01/13 12:18:58;;;;;;;4.77;1.10;;;9.00;99.90;;;;;;5060842;28;20957;-68
2023/01/13 12:21:28;;;;;;;1.60;0.77;;;9.90;99.90;;;;;;5059378;28;20434;-68
2023/01/13 12:24:04;;;;;;;0.90;0.73;;;11.20;99.90;;;;;;5070562;28;20451;-68
2023/01/13 12:26:34;;;;;;;5.80;1.47;;;11.50;99.90;;;;;;5064664;28;20419;-68
2023/01/13 12:29:05;;;;;;;2.07;0.97;;;12.10;99.90;;;;;;5051526;28;20462;-68
2023/01/13 12:31:35;;;;;;;2.40;1.07;;;13.50;99.90;;;;;;5051967;28;20424;-68
2023/01/13 12:34:32;;;;;;;0.90;0.90;;;13.70;99.90;;;;;;5052075;28;20985;-68
2023/01/13 12:37:12;;;;;;;1.90;1.50;;;14.20;99.90;;;;;;5052364;28;20762;-72
2023/01/13 12:40:16;;;;;;;2.40;1.20;;;15.70;99.90;;;;;;5051389;28;20415;-70
2023/01/13 12:45:31;;;;;;;2.70;1.20;;;15.00;99.90;;;;;;5051760;28;20943;-69
2023/01/13 12:47:58;;;;;;;2.97;1.47;;;13.30;99.90;;;;;;5033818;28;20462;-68
2023/01/13 12:50:23;;;;;;;1.93;1.00;;;12.20;99.90;;;;;;5051272;28;20424;-68
2023/01/13 12:52:56;;;;;;;3.30;1.00;;;12.20;99.90;;;;;;5051964;28;20462;-70
2023/01/13 12:55:22;;;;;;;4.20;1.50;;;13.80;99.90;;;;;;5052029;28;20177;-69
2023/01/13 12:58:05;;;;;;;4.90;1.90;;;15.40;99.90;;;;;;5052036;28;20419;-69
2023/01/13 13:00:40;;;;;;;3.90;1.90;;;17.00;99.90;;;;;;5051352;28;20428;-69
2023/01/13 13:03:14;;;;;;;3.10;2.00;;;17.10;98.60;;;;;;5052123;28;21127;-68
2023/01/13 13:05:55;;;;;;;5.40;2.20;;;17.30;97.20;;;;;;5033937;28;20431;-68
2023/01/13 13:08:43;;;;;;;5.17;2.80;;;16.90;95.70;;;;;;5050950;28;20459;-71
2023/01/13 13:13:16;;;;;;;2.40;1.67;;;18.20;94.10;;;;;;5014499;28;20419;-69
2023/01/13 13:14:02;;;;;;;2.70;1.40;;;19.50;91.40;;;;;;5051438;28;20478;-69
2023/01/13 13:16:28;;;;;;;3.27;1.70;;;19.80;89.60;;;;;;5051654;28;20503;-68
2023/01/13 13:19:17;;;;;;;5.07;1.87;;;19.70;82.40;;;;;;5051069;28;20933;-69
2023/01/13 13:22:10;;;;;;;5.47;2.67;;;20.80;80.50;;;;;;5049558;28;20445;-69
2023/01/13 13:24:36;;;;;;;3.10;1.77;;;22.00;78.40;;;;;;5053821;28;20441;-71
2023/01/13 13:27:33;;;;;;;4.60;1.87;;;21.50;75.60;;;;;;5062279;28;20467;-71
2023/01/13 13:30:12;;;;;;;3.07;1.50;;;20.60;77.60;;;;;;5033278;28;20475;-68
2023/01/13 13:33:04;;;;;;;5.20;1.87;;;19.10;76.60;;;;;;5071663;28;20447;-68
2023/01/13 13:35:57;;;;;;;2.20;1.50;;;18.80;82.30;;;;;;5054135;28;20416;-69
2023/01/13 13:47:12;;;;;;;3.23;2.07;;;17.20;85.50;;;;;;5051691;28;20457;-70
2023/01/13 13:49:40;;;;;;;2.50;1.33;;;16.10;90.40;;;;;;5050722;28;20498;-68
2023/01/13 13:52:14;;;;;;;4.53;1.97;;;14.80;93.70;;;;;;5051415;28;20186;-69
2023/01/13 13:54:43;;;;;;;5.80;1.57;;;13.60;98.80;;;;;;5051482;28;20493;-68
2023/01/13 13:57:18;;;;;;;3.37;1.50;;;12.70;99.90;;;;;;5051306;28;20921;-69
2023/01/13 13:59:45;;;;;;;4.37;1.33;;;12.10;99.90;;;;;;5053852;28;20769;-69
2023/01/13 14:02:28;;;;;;;3.70;1.60;;;11.50;99.90;;;;;;5055160;28;20792;-69
2023/01/13 14:05:39;;;;;;;4.47;1.10;;;10.90;99.90;;;;;;5055061;28;20431;-70
2023/01/13 14:08:16;;;;;;;4.70;1.40;;;10.70;99.90;;;;;;5000521;28;20477;-70
2023/01/13 14:10:44;;;;;;;10.53;1.90;;;10.30;99.90;;;;;;5055020;28;20420;-70
2023/01/13 14:13:23;;;;;;;4.33;1.30;;;9.80;99.90;;;;;;5054784;28;20459;-69